sensor_id;sensor_type;location;lat;lon;timestamp;P1;durP1;ratioP1;P2;durP2;ratioP2
65162;SDS011;51751;55.714;37.436;2023-06-26T00:01:42;26.92;;;9.30;;
65162;SDS011;51751;55.714;37.436;2023-06-26T00:04:08;28.95;;;9.93;;
65162;SDS011;51751;55.714;37.436;2023-06-26T00:06:40;21.13;;;9.10;;
65162;SDS011;51751;55.714;37.436;2023-06-26T00:09:10;21.80;;;8.88;;
65162;SDS011;51751;55.714;37.436;2023-06-26T00:11:37;20.85;;;8.85;;
65162;SDS011;51751;55.714;37.436;2023-06-26T00:14:04;21.25;;;8.57;;
65162;SDS011;51751;55.714;37.436;2023-06-26T00:16:30;19.48;;;8.77;;
65162;SDS011;51751;55.714;37.436;2023-06-26T00:19:02;19.60;;;8.75;;
65162;SDS011;51751;55.714;37.436;2023-06-26T00:21:28;32.08;;;9.52;;
65162;SDS011;51751;55.714;37.436;2023-06-26T00:23:54;20.70;;;8.98;;
65162;SDS011;51751;55.714;37.436;2023-06-26T00:26:20;21.00;;;10.20;;
65162;SDS011;51751;55.714;37.436;2023-06-26T00:28:46;28.17;;;10.60;;
65162;SDS011;51751;55.714;37.436;2023-06-26T00:31:12;27.88;;;8.70;;
65162;SDS011;51751;55.714;37.436;2023-06-26T00:33:38;23.33;;;8.80;;
65162;SDS011;51751;55.714;37.436;2023-06-26T00:36:04;21.88;;;9.75;;
65162;SDS011;51751;55.714;37.436;2023-06-26T00:38:30;23.98;;;9.77;;
65162;SDS011;51751;55.714;37.436;2023-06-26T00:41:15;25.27;;;10.38;;
65162;SDS011;51751;55.714;37.436;2023-06-26T00:43:43;23.17;;;9.98;;
65162;SDS011;51751;55.714;37.436;2023-06-26T00:46:12;26.95;;;11.15;;
65162;SDS011;51751;55.714;37.436;2023-06-26T00:48:41;24.63;;;10.60;;
65162;SDS011;51751;55.714;37.436;2023-06-26T00:51:08;21.52;;;8.50;;
65162;SDS011;51751;55.714;37.436;2023-06-26T00:53:35;26.65;;;8.95;;
65162;SDS011;51751;55.714;37.436;2023-06-26T00:56:01;22.52;;;8.50;;
65162;SDS011;51751;55.714;37.436;2023-06-26T00:58:28;25.58;;;9.40;;
65162;SDS011;51751;55.714;37.436;2023-06-26T01:03:52;18.83;;;8.38;;
65162;SDS011;51751;55.714;37.436;2023-06-26T01:06:23;15.05;;;8.10;;
65162;SDS011;51751;55.714;37.436;2023-06-26T01:08:49;18.00;;;8.77;;
65162;SDS011;51751;55.714;37.436;2023-06-26T01:11:17;21.85;;;8.45;;
65162;SDS011;51751;55.714;37.436;2023-06-26T01:13:44;27.17;;;8.85;;
65162;SDS011;51751;55.714;37.436;2023-06-26T01:16:10;21.92;;;8.40;;
65162;SDS011;51751;55.714;37.436;2023-06-26T01:18:37;21.25;;;10.02;;
65162;SDS011;51751;55.714;37.436;2023-06-26T01:21:09;26.00;;;9.55;;
65162;SDS011;51751;55.714;37.436;2023-06-26T01:24:17;19.73;;;9.73;;
65162;SDS011;51751;55.714;37.436;2023-06-26T01:26:32;28.52;;;8.65;;
65162;SDS011;51751;55.714;37.436;2023-06-26T01:29:01;25.73;;;9.35;;
65162;SDS011;51751;55.714;37.436;2023-06-26T01:31:28;22.90;;;10.48;;
65162;SDS011;51751;55.714;37.436;2023-06-26T01:33:56;26.48;;;8.70;;
65162;SDS011;51751;55.714;37.436;2023-06-26T01:36:23;21.70;;;9.52;;
65162;SDS011;51751;55.714;37.436;2023-06-26T01:38:49;20.90;;;8.80;;
65162;SDS011;51751;55.714;37.436;2023-06-26T01:41:15;28.45;;;9.48;;
65162;SDS011;51751;55.714;37.436;2023-06-26T01:46:33;33.88;;;9.45;;
65162;SDS011;51751;55.714;37.436;2023-06-26T01:51:51;42.60;;;9.93;;
65162;SDS011;51751;55.714;37.436;2023-06-26T01:54:57;20.25;;;8.80;;
65162;SDS011;51751;55.714;37.436;2023-06-26T01:57:26;21.73;;;8.30;;
65162;SDS011;51751;55.714;37.436;2023-06-26T01:59:53;27.13;;;10.60;;
65162;SDS011;51751;55.714;37.436;2023-06-26T02:02:22;29.38;;;10.52;;
65162;SDS011;51751;55.714;37.436;2023-06-26T02:04:49;25.77;;;9.02;;
65162;SDS011;51751;55.714;37.436;2023-06-26T02:07:16;47.75;;;9.98;;
65162;SDS011;51751;55.714;37.436;2023-06-26T02:09:42;27.40;;;9.02;;
65162;SDS011;51751;55.714;37.436;2023-06-26T02:12:10;30.83;;;9.07;;
65162;SDS011;51751;55.714;37.436;2023-06-26T02:14:36;44.58;;;10.80;;
65162;SDS011;51751;55.714;37.436;2023-06-26T02:17:02;46.75;;;10.60;;
65162;SDS011;51751;55.714;37.436;2023-06-26T02:19:28;39.47;;;10.00;;
65162;SDS011;51751;55.714;37.436;2023-06-26T02:21:54;35.22;;;9.75;;
65162;SDS011;51751;55.714;37.436;2023-06-26T02:24:22;36.03;;;10.45;;
65162;SDS011;51751;55.714;37.436;2023-06-26T02:26:48;35.63;;;11.68;;
65162;SDS011;51751;55.714;37.436;2023-06-26T02:29:15;34.78;;;10.95;;
65162;SDS011;51751;55.714;37.436;2023-06-26T02:31:40;29.13;;;10.50;;
65162;SDS011;51751;55.714;37.436;2023-06-26T02:34:07;32.55;;;9.85;;
65162;SDS011;51751;55.714;37.436;2023-06-26T02:36:33;32.17;;;9.77;;
65162;SDS011;51751;55.714;37.436;2023-06-26T02:38:59;25.25;;;11.30;;
65162;SDS011;51751;55.714;37.436;2023-06-26T02:41:26;30.88;;;12.15;;
65162;SDS011;51751;55.714;37.436;2023-06-26T02:43:51;30.95;;;9.15;;
65162;SDS011;51751;55.714;37.436;2023-06-26T02:46:18;20.23;;;9.65;;
65162;SDS011;51751;55.714;37.436;2023-06-26T02:48:43;32.00;;;9.75;;
65162;SDS011;51751;55.714;37.436;2023-06-26T02:51:28;29.77;;;9.90;;
65162;SDS011;51751;55.714;37.436;2023-06-26T02:53:56;26.48;;;9.82;;
65162;SDS011;51751;55.714;37.436;2023-06-26T02:56:22;24.45;;;9.50;;
65162;SDS011;51751;55.714;37.436;2023-06-26T02:58:48;26.35;;;9.02;;
65162;SDS011;51751;55.714;37.436;2023-06-26T03:01:14;22.08;;;8.98;;
65162;SDS011;51751;55.714;37.436;2023-06-26T03:03:40;26.15;;;9.63;;
65162;SDS011;51751;55.714;37.436;2023-06-26T03:06:11;23.02;;;9.65;;
65162;SDS011;51751;55.714;37.436;2023-06-26T03:08:44;20.45;;;9.65;;
65162;SDS011;51751;55.714;37.436;2023-06-26T03:11:11;23.40;;;9.70;;
65162;SDS011;51751;55.714;37.436;2023-06-26T03:13:38;23.92;;;9.93;;
65162;SDS011;51751;55.714;37.436;2023-06-26T03:16:04;24.77;;;9.85;;
65162;SDS011;51751;55.714;37.436;2023-06-26T03:18:30;24.45;;;10.40;;
65162;SDS011;51751;55.714;37.436;2023-06-26T03:20:56;18.77;;;10.10;;
65162;SDS011;51751;55.714;37.436;2023-06-26T03:23:23;27.98;;;9.77;;
65162;SDS011;51751;55.714;37.436;2023-06-26T03:25:50;22.35;;;10.20;;
65162;SDS011;51751;55.714;37.436;2023-06-26T03:28:36;28.15;;;11.23;;
65162;SDS011;51751;55.714;37.436;2023-06-26T03:31:02;25.30;;;11.02;;
65162;SDS011;51751;55.714;37.436;2023-06-26T03:33:28;21.95;;;10.98;;
65162;SDS011;51751;55.714;37.436;2023-06-26T03:35:55;19.40;;;11.00;;
65162;SDS011;51751;55.714;37.436;2023-06-26T03:38:21;21.25;;;11.18;;
65162;SDS011;51751;55.714;37.436;2023-06-26T03:40:47;21.33;;;11.60;;
65162;SDS011;51751;55.714;37.436;2023-06-26T03:43:13;20.98;;;11.35;;
65162;SDS011;51751;55.714;37.436;2023-06-26T03:45:56;24.25;;;11.88;;
65162;SDS011;51751;55.714;37.436;2023-06-26T03:48:22;28.48;;;11.75;;
65162;SDS011;51751;55.714;37.436;2023-06-26T03:50:48;21.70;;;10.77;;
65162;SDS011;51751;55.714;37.436;2023-06-26T03:53:15;23.90;;;10.65;;
65162;SDS011;51751;55.714;37.436;2023-06-26T03:55:41;19.33;;;10.63;;
65162;SDS011;51751;55.714;37.436;2023-06-26T03:58:07;18.08;;;10.80;;
65162;SDS011;51751;55.714;37.436;2023-06-26T04:00:33;21.90;;;10.55;;
65162;SDS011;51751;55.714;37.436;2023-06-26T04:02:59;20.65;;;10.27;;
65162;SDS011;51751;55.714;37.436;2023-06-26T04:05:24;17.85;;;9.50;;
65162;SDS011;51751;55.714;37.436;2023-06-26T04:07:51;16.60;;;9.93;;
65162;SDS011;51751;55.714;37.436;2023-06-26T04:10:17;13.68;;;8.93;;
65162;SDS011;51751;55.714;37.436;2023-06-26T04:12:45;16.75;;;8.95;;
65162;SDS011;51751;55.714;37.436;2023-06-26T04:15:10;14.95;;;9.30;;
65162;SDS011;51751;55.714;37.436;2023-06-26T04:17:36;17.75;;;9.07;;
65162;SDS011;51751;55.714;37.436;2023-06-26T04:20:02;18.10;;;9.68;;
65162;SDS011;51751;55.714;37.436;2023-06-26T04:22:32;14.27;;;9.05;;
65162;SDS011;51751;55.714;37.436;2023-06-26T04:25:00;15.80;;;8.88;;
65162;SDS011;51751;55.714;37.436;2023-06-26T04:27:30;18.73;;;9.57;;
65162;SDS011;51751;55.714;37.436;2023-06-26T04:29:56;18.48;;;9.68;;
65162;SDS011;51751;55.714;37.436;2023-06-26T04:32:22;18.80;;;9.85;;
65162;SDS011;51751;55.714;37.436;2023-06-26T04:34:49;17.15;;;9.65;;
65162;SDS011;51751;55.714;37.436;2023-06-26T04:37:15;17.92;;;9.30;;
65162;SDS011;51751;55.714;37.436;2023-06-26T04:39:42;17.92;;;9.20;;
65162;SDS011;51751;55.714;37.436;2023-06-26T04:42:08;18.10;;;8.98;;
65162;SDS011;51751;55.714;37.436;2023-06-26T04:44:37;18.67;;;7.75;;
65162;SDS011;51751;55.714;37.436;2023-06-26T04:47:04;15.93;;;8.20;;
65162;SDS011;51751;55.714;37.436;2023-06-26T04:49:30;15.30;;;8.05;;
65162;SDS011;51751;55.714;37.436;2023-06-26T04:51:56;14.63;;;8.40;;
65162;SDS011;51751;55.714;37.436;2023-06-26T04:54:21;16.20;;;7.85;;
65162;SDS011;51751;55.714;37.436;2023-06-26T04:56:49;13.13;;;7.70;;
65162;SDS011;51751;55.714;37.436;2023-06-26T04:59:15;20.08;;;7.93;;
65162;SDS011;51751;55.714;37.436;2023-06-26T05:01:41;18.15;;;8.73;;
65162;SDS011;51751;55.714;37.436;2023-06-26T05:04:07;20.58;;;8.63;;
65162;SDS011;51751;55.714;37.436;2023-06-26T05:06:33;20.73;;;9.70;;
65162;SDS011;51751;55.714;37.436;2023-06-26T05:08:59;18.25;;;8.60;;
65162;SDS011;51751;55.714;37.436;2023-06-26T05:11:25;14.38;;;8.85;;
65162;SDS011;51751;55.714;37.436;2023-06-26T05:13:51;17.85;;;8.05;;
65162;SDS011;51751;55.714;37.436;2023-06-26T05:16:17;18.65;;;9.60;;
65162;SDS011;51751;55.714;37.436;2023-06-26T05:18:43;14.60;;;8.63;;
65162;SDS011;51751;55.714;37.436;2023-06-26T05:21:09;19.52;;;9.25;;
65162;SDS011;51751;55.714;37.436;2023-06-26T05:23:35;18.38;;;8.93;;
65162;SDS011;51751;55.714;37.436;2023-06-26T05:26:01;12.15;;;7.63;;
65162;SDS011;51751;55.714;37.436;2023-06-26T05:28:28;12.00;;;7.50;;
65162;SDS011;51751;55.714;37.436;2023-06-26T05:31:15;10.93;;;6.10;;
65162;SDS011;51751;55.714;37.436;2023-06-26T05:33:43;15.10;;;6.13;;
65162;SDS011;51751;55.714;37.436;2023-06-26T05:36:10;15.05;;;8.13;;
65162;SDS011;51751;55.714;37.436;2023-06-26T05:38:38;9.70;;;5.60;;
65162;SDS011;51751;55.714;37.436;2023-06-26T05:41:04;10.15;;;5.57;;
65162;SDS011;51751;55.714;37.436;2023-06-26T05:43:30;7.93;;;4.95;;
65162;SDS011;51751;55.714;37.436;2023-06-26T05:45:56;11.18;;;5.65;;
65162;SDS011;51751;55.714;37.436;2023-06-26T05:48:25;7.63;;;4.80;;
65162;SDS011;51751;55.714;37.436;2023-06-26T05:50:51;7.03;;;4.40;;
65162;SDS011;51751;55.714;37.436;2023-06-26T05:53:17;8.93;;;5.25;;
65162;SDS011;51751;55.714;37.436;2023-06-26T05:55:43;9.90;;;5.00;;
65162;SDS011;51751;55.714;37.436;2023-06-26T05:58:10;8.35;;;4.57;;
65162;SDS011;51751;55.714;37.436;2023-06-26T06:00:37;10.10;;;4.65;;
65162;SDS011;51751;55.714;37.436;2023-06-26T06:03:05;11.13;;;4.72;;
65162;SDS011;51751;55.714;37.436;2023-06-26T06:05:31;6.00;;;4.40;;
65162;SDS011;51751;55.714;37.436;2023-06-26T06:07:56;8.25;;;4.70;;
65162;SDS011;51751;55.714;37.436;2023-06-26T06:10:22;12.18;;;4.53;;
65162;SDS011;51751;55.714;37.436;2023-06-26T06:12:48;8.15;;;4.68;;
65162;SDS011;51751;55.714;37.436;2023-06-26T06:15:14;9.70;;;4.40;;
65162;SDS011;51751;55.714;37.436;2023-06-26T06:17:40;8.57;;;4.45;;
65162;SDS011;51751;55.714;37.436;2023-06-26T06:20:06;11.43;;;5.35;;
65162;SDS011;51751;55.714;37.436;2023-06-26T06:22:32;11.70;;;4.22;;
65162;SDS011;51751;55.714;37.436;2023-06-26T06:24:58;10.32;;;4.80;;
65162;SDS011;51751;55.714;37.436;2023-06-26T06:27:24;8.77;;;4.72;;
65162;SDS011;51751;55.714;37.436;2023-06-26T06:29:50;7.43;;;4.78;;
65162;SDS011;51751;55.714;37.436;2023-06-26T06:32:16;6.55;;;4.50;;
65162;SDS011;51751;55.714;37.436;2023-06-26T06:34:42;6.93;;;4.30;;
65162;SDS011;51751;55.714;37.436;2023-06-26T06:37:07;6.28;;;4.68;;
65162;SDS011;51751;55.714;37.436;2023-06-26T06:39:33;9.52;;;5.20;;
65162;SDS011;51751;55.714;37.436;2023-06-26T06:41:59;7.82;;;4.60;;
65162;SDS011;51751;55.714;37.436;2023-06-26T06:44:25;10.43;;;4.60;;
65162;SDS011;51751;55.714;37.436;2023-06-26T06:46:51;7.88;;;4.40;;
65162;SDS011;51751;55.714;37.436;2023-06-26T06:49:17;6.30;;;4.15;;
65162;SDS011;51751;55.714;37.436;2023-06-26T06:51:43;7.80;;;4.20;;
65162;SDS011;51751;55.714;37.436;2023-06-26T06:54:09;7.07;;;4.13;;
65162;SDS011;51751;55.714;37.436;2023-06-26T06:56:35;7.10;;;4.50;;
65162;SDS011;51751;55.714;37.436;2023-06-26T06:59:01;6.13;;;4.25;;
65162;SDS011;51751;55.714;37.436;2023-06-26T07:01:27;8.60;;;4.50;;
65162;SDS011;51751;55.714;37.436;2023-06-26T07:03:53;11.88;;;4.60;;
65162;SDS011;51751;55.714;37.436;2023-06-26T07:06:37;6.65;;;4.30;;
65162;SDS011;51751;55.714;37.436;2023-06-26T07:09:03;6.20;;;4.68;;
65162;SDS011;51751;55.714;37.436;2023-06-26T07:11:31;12.95;;;4.82;;
65162;SDS011;51751;55.714;37.436;2023-06-26T07:13:57;7.10;;;4.43;;
65162;SDS011;51751;55.714;37.436;2023-06-26T07:16:23;7.40;;;4.47;;
65162;SDS011;51751;55.714;37.436;2023-06-26T07:18:49;6.38;;;3.95;;
65162;SDS011;51751;55.714;37.436;2023-06-26T07:21:16;8.02;;;4.05;;
65162;SDS011;51751;55.714;37.436;2023-06-26T07:23:42;8.73;;;3.97;;
65162;SDS011;51751;55.714;37.436;2023-06-26T07:26:08;10.70;;;4.28;;
65162;SDS011;51751;55.714;37.436;2023-06-26T07:28:34;11.50;;;4.50;;
65162;SDS011;51751;55.714;37.436;2023-06-26T07:31:00;7.97;;;4.07;;
65162;SDS011;51751;55.714;37.436;2023-06-26T07:33:26;10.95;;;4.10;;
65162;SDS011;51751;55.714;37.436;2023-06-26T07:35:52;9.20;;;4.03;;
65162;SDS011;51751;55.714;37.436;2023-06-26T07:38:18;9.05;;;3.80;;
65162;SDS011;51751;55.714;37.436;2023-06-26T07:40:43;5.28;;;3.83;;
65162;SDS011;51751;55.714;37.436;2023-06-26T07:43:10;7.30;;;3.80;;
65162;SDS011;51751;55.714;37.436;2023-06-26T07:45:35;6.57;;;4.00;;
65162;SDS011;51751;55.714;37.436;2023-06-26T07:48:01;10.35;;;3.78;;
65162;SDS011;51751;55.714;37.436;2023-06-26T07:50:27;7.90;;;4.00;;
65162;SDS011;51751;55.714;37.436;2023-06-26T07:52:53;4.88;;;3.97;;
65162;SDS011;51751;55.714;37.436;2023-06-26T07:55:19;9.15;;;4.00;;
65162;SDS011;51751;55.714;37.436;2023-06-26T07:57:45;6.28;;;3.65;;
65162;SDS011;51751;55.714;37.436;2023-06-26T08:00:11;5.05;;;3.33;;
65162;SDS011;51751;55.714;37.436;2023-06-26T08:02:40;7.05;;;4.00;;
65162;SDS011;51751;55.714;37.436;2023-06-26T08:05:06;6.70;;;4.28;;
65162;SDS011;51751;55.714;37.436;2023-06-26T08:07:33;5.32;;;3.92;;
65162;SDS011;51751;55.714;37.436;2023-06-26T08:09:58;7.13;;;4.05;;
65162;SDS011;51751;55.714;37.436;2023-06-26T08:12:24;8.20;;;3.97;;
65162;SDS011;51751;55.714;37.436;2023-06-26T08:14:50;4.43;;;3.70;;
65162;SDS011;51751;55.714;37.436;2023-06-26T08:17:17;7.85;;;4.32;;
65162;SDS011;51751;55.714;37.436;2023-06-26T08:19:42;9.10;;;4.53;;
65162;SDS011;51751;55.714;37.436;2023-06-26T08:22:08;4.70;;;4.20;;
65162;SDS011;51751;55.714;37.436;2023-06-26T08:24:35;5.80;;;4.03;;
65162;SDS011;51751;55.714;37.436;2023-06-26T08:27:02;7.55;;;4.60;;
65162;SDS011;51751;55.714;37.436;2023-06-26T08:29:29;8.18;;;4.38;;
65162;SDS011;51751;55.714;37.436;2023-06-26T08:32:13;7.30;;;4.43;;
65162;SDS011;51751;55.714;37.436;2023-06-26T08:34:39;6.95;;;4.93;;
65162;SDS011;51751;55.714;37.436;2023-06-26T08:37:05;6.85;;;4.50;;
65162;SDS011;51751;55.714;37.436;2023-06-26T08:39:33;5.97;;;4.60;;
65162;SDS011;51751;55.714;37.436;2023-06-26T08:41:59;7.30;;;4.55;;
65162;SDS011;51751;55.714;37.436;2023-06-26T08:44:25;6.82;;;4.50;;
65162;SDS011;51751;55.714;37.436;2023-06-26T08:46:54;11.18;;;4.80;;
65162;SDS011;51751;55.714;37.436;2023-06-26T08:49:21;7.50;;;4.55;;
65162;SDS011;51751;55.714;37.436;2023-06-26T08:51:56;10.48;;;4.80;;
65162;SDS011;51751;55.714;37.436;2023-06-26T08:54:27;12.20;;;4.63;;
65162;SDS011;51751;55.714;37.436;2023-06-26T08:56:55;6.50;;;4.85;;
65162;SDS011;51751;55.714;37.436;2023-06-26T08:59:21;10.45;;;4.90;;
65162;SDS011;51751;55.714;37.436;2023-06-26T09:01:47;10.73;;;5.00;;
65162;SDS011;51751;55.714;37.436;2023-06-26T09:04:13;7.38;;;4.55;;
65162;SDS011;51751;55.714;37.436;2023-06-26T09:06:39;14.75;;;5.15;;
65162;SDS011;51751;55.714;37.436;2023-06-26T09:09:05;9.88;;;4.50;;
65162;SDS011;51751;55.714;37.436;2023-06-26T09:11:49;10.18;;;4.80;;
65162;SDS011;51751;55.714;37.436;2023-06-26T09:14:15;8.00;;;4.60;;
65162;SDS011;51751;55.714;37.436;2023-06-26T09:16:41;10.18;;;4.65;;
65162;SDS011;51751;55.714;37.436;2023-06-26T09:19:10;5.45;;;4.65;;
65162;SDS011;51751;55.714;37.436;2023-06-26T09:21:40;10.10;;;4.60;;
65162;SDS011;51751;55.714;37.436;2023-06-26T09:24:08;9.55;;;5.00;;
65162;SDS011;51751;55.714;37.436;2023-06-26T09:26:36;12.10;;;4.82;;
65162;SDS011;51751;55.714;37.436;2023-06-26T09:29:04;8.05;;;4.70;;
65162;SDS011;51751;55.714;37.436;2023-06-26T09:31:30;9.82;;;5.38;;
65162;SDS011;51751;55.714;37.436;2023-06-26T09:33:59;10.30;;;4.72;;
65162;SDS011;51751;55.714;37.436;2023-06-26T09:36:27;10.75;;;5.10;;
65162;SDS011;51751;55.714;37.436;2023-06-26T09:38:54;8.32;;;4.63;;
65162;SDS011;51751;55.714;37.436;2023-06-26T09:41:20;10.13;;;4.72;;
65162;SDS011;51751;55.714;37.436;2023-06-26T09:43:46;9.65;;;4.80;;
65162;SDS011;51751;55.714;37.436;2023-06-26T09:46:55;7.72;;;5.40;;
65162;SDS011;51751;55.714;37.436;2023-06-26T09:49:10;10.48;;;5.25;;
65162;SDS011;51751;55.714;37.436;2023-06-26T09:51:37;16.83;;;5.28;;
65162;SDS011;51751;55.714;37.436;2023-06-26T09:54:05;12.38;;;4.68;;
65162;SDS011;51751;55.714;37.436;2023-06-26T09:56:32;7.72;;;4.78;;
65162;SDS011;51751;55.714;37.436;2023-06-26T09:58:59;15.27;;;4.93;;
65162;SDS011;51751;55.714;37.436;2023-06-26T10:01:27;7.22;;;4.63;;
65162;SDS011;51751;55.714;37.436;2023-06-26T10:03:53;6.15;;;4.70;;
65162;SDS011;51751;55.714;37.436;2023-06-26T10:06:45;11.38;;;5.28;;
65162;SDS011;51751;55.714;37.436;2023-06-26T10:09:12;8.02;;;4.50;;
65162;SDS011;51751;55.714;37.436;2023-06-26T10:11:54;8.30;;;3.60;;
65162;SDS011;51751;55.714;37.436;2023-06-26T10:14:22;6.32;;;3.83;;
65162;SDS011;51751;55.714;37.436;2023-06-26T10:16:52;6.07;;;3.90;;
65162;SDS011;51751;55.714;37.436;2023-06-26T10:19:18;6.00;;;4.20;;
65162;SDS011;51751;55.714;37.436;2023-06-26T10:21:51;12.43;;;4.45;;
65162;SDS011;51751;55.714;37.436;2023-06-26T10:24:18;12.40;;;5.47;;
65162;SDS011;51751;55.714;37.436;2023-06-26T10:26:45;9.85;;;4.00;;
65162;SDS011;51751;55.714;37.436;2023-06-26T10:29:12;6.40;;;3.55;;
65162;SDS011;51751;55.714;37.436;2023-06-26T10:31:40;9.30;;;4.25;;
65162;SDS011;51751;55.714;37.436;2023-06-26T10:34:08;8.15;;;3.67;;
65162;SDS011;51751;55.714;37.436;2023-06-26T10:36:34;5.85;;;3.60;;
65162;SDS011;51751;55.714;37.436;2023-06-26T10:39:03;9.02;;;3.30;;
65162;SDS011;51751;55.714;37.436;2023-06-26T10:41:51;5.55;;;3.35;;
65162;SDS011;51751;55.714;37.436;2023-06-26T10:44:20;5.32;;;3.53;;
65162;SDS011;51751;55.714;37.436;2023-06-26T10:46:49;4.97;;;3.53;;
65162;SDS011;51751;55.714;37.436;2023-06-26T10:49:20;4.60;;;3.40;;
65162;SDS011;51751;55.714;37.436;2023-06-26T10:51:49;7.72;;;3.90;;
65162;SDS011;51751;55.714;37.436;2023-06-26T10:54:16;8.75;;;3.83;;
65162;SDS011;51751;55.714;37.436;2023-06-26T10:56:45;9.05;;;4.97;;
65162;SDS011;51751;55.714;37.436;2023-06-26T10:59:18;9.15;;;3.83;;
65162;SDS011;51751;55.714;37.436;2023-06-26T11:01:46;5.55;;;3.78;;
65162;SDS011;51751;55.714;37.436;2023-06-26T11:04:21;8.63;;;3.95;;
65162;SDS011;51751;55.714;37.436;2023-06-26T11:09:58;6.80;;;4.22;;
65162;SDS011;51751;55.714;37.436;2023-06-26T11:12:38;5.72;;;4.03;;
65162;SDS011;51751;55.714;37.436;2023-06-26T11:15:08;11.88;;;4.60;;
65162;SDS011;51751;55.714;37.436;2023-06-26T11:17:41;10.35;;;4.30;;
65162;SDS011;51751;55.714;37.436;2023-06-26T11:20:09;7.15;;;4.10;;
65162;SDS011;51751;55.714;37.436;2023-06-26T11:22:36;7.10;;;4.15;;
65162;SDS011;51751;55.714;37.436;2023-06-26T11:25:03;11.73;;;4.47;;
65162;SDS011;51751;55.714;37.436;2023-06-26T11:27:40;6.60;;;4.22;;
65162;SDS011;51751;55.714;37.436;2023-06-26T11:30:11;7.15;;;4.25;;
65162;SDS011;51751;55.714;37.436;2023-06-26T11:32:47;15.80;;;4.40;;
65162;SDS011;51751;55.714;37.436;2023-06-26T11:35:13;8.75;;;3.97;;
65162;SDS011;51751;55.714;37.436;2023-06-26T11:37:49;7.43;;;4.22;;
65162;SDS011;51751;55.714;37.436;2023-06-26T11:40:18;7.38;;;4.38;;
65162;SDS011;51751;55.714;37.436;2023-06-26T11:42:44;6.72;;;4.30;;
65162;SDS011;51751;55.714;37.436;2023-06-26T11:45:10;8.93;;;4.38;;
65162;SDS011;51751;55.714;37.436;2023-06-26T11:47:37;8.70;;;4.10;;
65162;SDS011;51751;55.714;37.436;2023-06-26T11:50:04;5.55;;;4.30;;
65162;SDS011;51751;55.714;37.436;2023-06-26T11:52:32;9.48;;;4.80;;
65162;SDS011;51751;55.714;37.436;2023-06-26T11:54:58;15.82;;;4.88;;
65162;SDS011;51751;55.714;37.436;2023-06-26T11:57:24;8.82;;;5.07;;
65162;SDS011;51751;55.714;37.436;2023-06-26T11:59:50;8.95;;;4.68;;
65162;SDS011;51751;55.714;37.436;2023-06-26T12:02:17;10.13;;;6.93;;
65162;SDS011;51751;55.714;37.436;2023-06-26T12:04:43;7.43;;;4.45;;
65162;SDS011;51751;55.714;37.436;2023-06-26T12:07:10;11.73;;;5.00;;
65162;SDS011;51751;55.714;37.436;2023-06-26T12:09:46;8.57;;;4.88;;
65162;SDS011;51751;55.714;37.436;2023-06-26T12:12:14;7.88;;;4.97;;
65162;SDS011;51751;55.714;37.436;2023-06-26T12:14:42;8.73;;;4.80;;
65162;SDS011;51751;55.714;37.436;2023-06-26T12:17:11;7.63;;;5.07;;
65162;SDS011;51751;55.714;37.436;2023-06-26T12:19:48;9.68;;;4.72;;
65162;SDS011;51751;55.714;37.436;2023-06-26T12:22:15;12.40;;;4.90;;
65162;SDS011;51751;55.714;37.436;2023-06-26T12:24:44;7.97;;;4.60;;
65162;SDS011;51751;55.714;37.436;2023-06-26T12:27:12;7.35;;;4.80;;
65162;SDS011;51751;55.714;37.436;2023-06-26T12:29:40;10.73;;;4.65;;
65162;SDS011;51751;55.714;37.436;2023-06-26T12:32:10;8.75;;;4.93;;
65162;SDS011;51751;55.714;37.436;2023-06-26T12:34:37;7.50;;;4.85;;
65162;SDS011;51751;55.714;37.436;2023-06-26T12:37:05;6.90;;;4.78;;
65162;SDS011;51751;55.714;37.436;2023-06-26T12:40:00;4.90;;;4.30;;
65162;SDS011;51751;55.714;37.436;2023-06-26T12:42:30;7.85;;;4.68;;
65162;SDS011;51751;55.714;37.436;2023-06-26T12:44:58;10.07;;;4.43;;
65162;SDS011;51751;55.714;37.436;2023-06-26T12:47:26;6.65;;;4.35;;
65162;SDS011;51751;55.714;37.436;2023-06-26T12:49:53;6.28;;;4.60;;
65162;SDS011;51751;55.714;37.436;2023-06-26T12:52:19;10.82;;;4.78;;
65162;SDS011;51751;55.714;37.436;2023-06-26T12:54:51;6.80;;;4.50;;
65162;SDS011;51751;55.714;37.436;2023-06-26T12:57:17;7.90;;;4.65;;
65162;SDS011;51751;55.714;37.436;2023-06-26T12:59:43;6.63;;;4.68;;
65162;SDS011;51751;55.714;37.436;2023-06-26T13:02:09;7.90;;;4.70;;
65162;SDS011;51751;55.714;37.436;2023-06-26T13:04:39;9.50;;;4.60;;
65162;SDS011;51751;55.714;37.436;2023-06-26T13:07:24;8.02;;;4.90;;
65162;SDS011;51751;55.714;37.436;2023-06-26T13:09:51;6.82;;;4.30;;
65162;SDS011;51751;55.714;37.436;2023-06-26T13:12:16;6.57;;;4.70;;
65162;SDS011;51751;55.714;37.436;2023-06-26T13:14:42;7.30;;;4.30;;
65162;SDS011;51751;55.714;37.436;2023-06-26T13:17:08;11.07;;;4.32;;
65162;SDS011;51751;55.714;37.436;2023-06-26T13:19:34;6.32;;;4.20;;
65162;SDS011;51751;55.714;37.436;2023-06-26T13:22:00;6.93;;;4.30;;
65162;SDS011;51751;55.714;37.436;2023-06-26T13:24:26;8.30;;;5.30;;
65162;SDS011;51751;55.714;37.436;2023-06-26T13:26:52;10.13;;;4.28;;
65162;SDS011;51751;55.714;37.436;2023-06-26T13:29:19;5.97;;;4.28;;
65162;SDS011;51751;55.714;37.436;2023-06-26T13:31:45;7.80;;;4.22;;
65162;SDS011;51751;55.714;37.436;2023-06-26T13:34:19;9.88;;;4.32;;
65162;SDS011;51751;55.714;37.436;2023-06-26T13:36:47;13.02;;;4.00;;
65162;SDS011;51751;55.714;37.436;2023-06-26T13:39:13;7.25;;;4.03;;
65162;SDS011;51751;55.714;37.436;2023-06-26T13:41:39;6.18;;;4.00;;
65162;SDS011;51751;55.714;37.436;2023-06-26T13:44:05;6.15;;;4.05;;
65162;SDS011;51751;55.714;37.436;2023-06-26T13:46:30;6.03;;;4.00;;
65162;SDS011;51751;55.714;37.436;2023-06-26T13:48:56;5.85;;;3.78;;
65162;SDS011;51751;55.714;37.436;2023-06-26T13:51:22;7.38;;;4.43;;
65162;SDS011;51751;55.714;37.436;2023-06-26T13:53:48;7.38;;;4.30;;
65162;SDS011;51751;55.714;37.436;2023-06-26T13:56:14;6.15;;;4.07;;
65162;SDS011;51751;55.714;37.436;2023-06-26T13:58:40;7.35;;;4.05;;
65162;SDS011;51751;55.714;37.436;2023-06-26T14:01:06;8.13;;;4.20;;
65162;SDS011;51751;55.714;37.436;2023-06-26T14:03:31;8.65;;;4.43;;
65162;SDS011;51751;55.714;37.436;2023-06-26T14:05:58;8.82;;;4.80;;
65162;SDS011;51751;55.714;37.436;2023-06-26T14:08:24;8.38;;;4.57;;
65162;SDS011;51751;55.714;37.436;2023-06-26T14:10:49;6.53;;;4.13;;
65162;SDS011;51751;55.714;37.436;2023-06-26T14:13:15;6.97;;;4.30;;
65162;SDS011;51751;55.714;37.436;2023-06-26T14:15:41;7.47;;;4.57;;
65162;SDS011;51751;55.714;37.436;2023-06-26T14:18:08;9.55;;;4.05;;
65162;SDS011;51751;55.714;37.436;2023-06-26T14:20:34;6.45;;;4.20;;
65162;SDS011;51751;55.714;37.436;2023-06-26T14:23:01;9.05;;;4.50;;
65162;SDS011;51751;55.714;37.436;2023-06-26T14:25:27;5.95;;;4.10;;
65162;SDS011;51751;55.714;37.436;2023-06-26T14:27:54;6.60;;;4.13;;
65162;SDS011;51751;55.714;37.436;2023-06-26T14:30:21;4.68;;;4.10;;
65162;SDS011;51751;55.714;37.436;2023-06-26T14:32:47;10.32;;;4.05;;
65162;SDS011;51751;55.714;37.436;2023-06-26T14:35:13;10.00;;;3.92;;
65162;SDS011;51751;55.714;37.436;2023-06-26T14:37:39;7.43;;;4.30;;
65162;SDS011;51751;55.714;37.436;2023-06-26T14:40:08;6.00;;;4.22;;
65162;SDS011;51751;55.714;37.436;2023-06-26T14:42:34;6.93;;;4.22;;